KAIB

Hopkins Field Airport

Nucla, Colorado, USA
METAR KAIB 170815Z AUTO 12006KT 10SM CLR M03/M08 A3033 RMK AO2
Observed Flight Rules
Dec-17 @ 08:15 UTC (26 minutes ago) Visual Flight Rules
Wind Visibility Clouds
120° at 6 knots 10 miles
  • Clear skies
Temperatures Readings
Current -3°C / 27°F
Dewpoint -8°C / 18°F
Humidity 69%
Altimeter 30.33" Hg
Pressure 1027 hPa
Elevation 1811
METAR KAIB 170815Z AUTO 12006KT 10SM CLR M03/M08 A3033 RMK AO2
Observed Flight Rules
Dec-17 @ 08:15 UTC
(26 minutes ago)
VFR
Wind Visibility
120° at 6 knots 10 miles
Clouds
  • Clear skies
Temperature Dewpoint
-3°C / 27°F -8°C / 18°F
Humidity Altimeter Pressure
69% 30.33" Hg 1027 hPa